createdAt,value
2023-04-02T00:00:32.665Z,97761.63
2023-04-02T00:02:38.544Z,97758.25
2023-04-02T00:04:43.639Z,97763.41
2023-04-02T00:06:49.424Z,97770.16
2023-04-02T00:08:56.448Z,97766.78
2023-04-02T00:11:04.629Z,97771.69
2023-04-02T00:13:28.349Z,97781.66
2023-04-02T00:15:34.469Z,97773.19
2023-04-02T00:17:39.749Z,97781.63
2023-04-02T00:19:52.500Z,97777.34
2023-04-02T00:22:00.014Z,97784.94
2023-04-02T00:24:13.630Z,97789.94
2023-04-02T00:26:31.965Z,97785.81
2023-04-02T00:28:40.116Z,97791.66
2023-04-02T00:30:52.360Z,97796.69
2023-04-02T00:32:58.057Z,97790.03
2023-04-02T00:35:04.346Z,97795.03
2023-04-02T00:37:09.665Z,97795.84
2023-04-02T00:39:22.769Z,97798.41
2023-04-02T00:41:36.333Z,97804.34
2023-04-02T00:43:50.871Z,97808.59
2023-04-02T00:46:01.444Z,97809.44
2023-04-02T00:48:23.925Z,97808.59
2023-04-02T00:50:35.998Z,97808.56
2023-04-02T00:52:43.445Z,97813.59
2023-04-02T00:54:55.307Z,97808.56
2023-04-02T00:57:01.589Z,97813.47
2023-04-02T00:59:23.842Z,97816.84
2023-04-02T01:01:34.411Z,97810.19
2023-04-02T01:03:41.333Z,97815.97
2023-04-02T01:05:50.395Z,97815.13
2023-04-02T01:08:10.319Z,97818.50
2023-04-02T01:10:37.440Z,97823.50
2023-04-02T01:12:55.748Z,97826.88
2023-04-02T01:15:14.190Z,97827.00
2023-04-02T01:17:46.908Z,97832.91
2023-04-02T01:20:36.790Z,97835.50
2023-04-02T01:22:52.583Z,97835.50
2023-04-02T01:25:00.877Z,97835.38
2023-04-02T01:27:09.486Z,97843.69
2023-04-02T01:29:20.055Z,97845.53
2023-04-02T01:31:27.520Z,97846.19
2023-04-02T01:33:37.178Z,97848.72
2023-04-02T01:35:48.491Z,97849.47
2023-04-02T01:38:02.267Z,97851.97
2023-04-02T01:40:26.147Z,97852.84
2023-04-02T01:42:38.957Z,97850.41
2023-04-02T01:44:51.530Z,97857.97
2023-04-02T01:46:58.988Z,97860.28
2023-04-02T01:49:12.838Z,97867.03
2023-04-02T01:51:31.250Z,97866.16
2023-04-02T01:53:37.234Z,97868.47
2023-04-02T01:55:47.691Z,97875.03
2023-04-02T01:57:56.510Z,97874.38
2023-04-02T02:00:13.592Z,97881.78
2023-04-02T02:02:19.956Z,97885.25
2023-04-02T02:04:25.333Z,97892.03
2023-04-02T02:06:31.522Z,97890.31
2023-04-02T02:08:42.611Z,97897.78
2023-04-02T02:10:48.541Z,97893.56
2023-04-02T02:12:54.093Z,97901.03
2023-04-02T02:14:59.238Z,97894.41
2023-04-02T02:17:13.727Z,97899.31
2023-04-02T02:19:31.424Z,97906.69
2023-04-02T02:21:43.338Z,97905.84
2023-04-02T02:23:48.625Z,97914.31
2023-04-02T02:25:53.755Z,97906.56
2023-04-02T02:28:06.162Z,97920.28
2023-04-02T02:30:19.038Z,97922.88
2023-04-02T02:32:32.406Z,97926.72
2023-04-02T02:34:44.378Z,97930.75
2023-04-02T02:36:55.499Z,97934.59
2023-04-02T02:39:07.463Z,97937.44
2023-04-02T02:41:27.788Z,97945.03
2023-04-02T02:43:37.812Z,97953.94
2023-04-02T02:45:44.612Z,97955.88
2023-04-02T02:47:55.718Z,97957.59
2023-04-02T02:50:05.336Z,97962.59
2023-04-02T02:52:20.206Z,97962.75
2023-04-02T02:54:34.285Z,97971.13
2023-04-02T02:56:45.058Z,97968.00
2023-04-02T02:58:53.617Z,97969.72
2023-04-02T03:01:03.294Z,97983.91
2023-04-02T03:03:18.414Z,97979.06
2023-04-02T03:05:30.664Z,97980.94
2023-04-02T03:07:42.543Z,97983.56
2023-04-02T03:09:56.524Z,97993.38
2023-04-02T03:12:10.837Z,97994.16
2023-04-02T03:14:27.469Z,97998.06
2023-04-02T03:16:41.463Z,98000.56
2023-04-02T03:18:56.384Z,98010.63
2023-04-02T03:21:08.892Z,98013.00
2023-04-02T03:23:21.331Z,98026.72
2023-04-02T03:25:37.294Z,98032.53
2023-04-02T03:27:48.423Z,98027.41
2023-04-02T03:30:16.611Z,98036.19
2023-04-02T03:32:26.497Z,98046.53
2023-04-02T03:34:40.126Z,98045.72
2023-04-02T03:36:54.109Z,98049.97
2023-04-02T03:39:12.108Z,98055.25
2023-04-02T03:41:24.732Z,98060.44
2023-04-02T03:43:35.337Z,98057.28
2023-04-02T03:45:46.884Z,98065.94
2023-04-02T03:47:57.328Z,98077.53
2023-04-02T03:50:11.456Z,98078.34
2023-04-02T03:52:28.774Z,98074.13
2023-04-02T03:54:36.820Z,98075.94
2023-04-02T03:56:42.437Z,98086.03
2023-04-02T03:58:58.771Z,98091.31
2023-04-02T04:01:15.042Z,98096.38
2023-04-02T04:03:24.188Z,98103.09
2023-04-02T04:05:35.252Z,98106.38
2023-04-02T04:07:45.445Z,98109.94
2023-04-02T04:09:55.564Z,98114.88
2023-04-02T04:12:17.237Z,98120.84
2023-04-02T04:14:31.394Z,98125.88
2023-04-02T04:16:47.866Z,98133.56
2023-04-02T04:19:03.381Z,98137.09
2023-04-02T04:21:30.120Z,98141.34
2023-04-02T04:23:49.988Z,98144.72
2023-04-02T04:26:05.602Z,98148.94
2023-04-02T04:28:24.659Z,98151.44
2023-04-02T04:30:42.199Z,98153.94
2023-04-02T04:32:52.931Z,98165.56
2023-04-02T04:35:08.566Z,98169.06
2023-04-02T04:37:25.342Z,98176.47
2023-04-02T04:39:43.194Z,98178.19
2023-04-02T04:41:51.472Z,98190.00
2023-04-02T04:44:07.087Z,98190.88
2023-04-02T04:46:19.437Z,98192.56
2023-04-02T04:48:30.014Z,98200.06
2023-04-02T04:50:41.785Z,98194.25
2023-04-02T04:52:50.442Z,98203.50
2023-04-02T04:54:55.964Z,98218.44
2023-04-02T04:57:08.293Z,98217.63
2023-04-02T04:59:22.030Z,98224.31
2023-04-02T05:01:36.776Z,98219.38
2023-04-02T05:03:49.070Z,98226.03
2023-04-02T05:05:55.709Z,98237.72
2023-04-02T05:08:12.955Z,98239.38
2023-04-02T05:10:28.053Z,98246.09
2023-04-02T05:12:39.806Z,98253.59
2023-04-02T05:14:56.750Z,98252.81
2023-04-02T05:17:07.391Z,98253.75
2023-04-02T05:19:20.591Z,98261.16
2023-04-02T05:21:34.961Z,98265.41
2023-04-02T05:23:51.972Z,98268.75
2023-04-02T05:26:06.662Z,98276.38
2023-04-02T05:28:22.528Z,98278.06
2023-04-02T05:30:53.484Z,98292.22
2023-04-02T05:33:08.092Z,98293.09
2023-04-02T05:35:19.023Z,98296.50
2023-04-02T05:37:28.997Z,98303.97
2023-04-02T05:39:37.743Z,98305.59
2023-04-02T05:41:47.639Z,98308.09
2023-04-02T05:44:13.592Z,98314.84
2023-04-02T05:46:21.737Z,98320.72
2023-04-02T05:48:33.276Z,98326.56
2023-04-02T05:50:46.195Z,98338.22
2023-04-02T05:53:04.127Z,98331.63
2023-04-02T05:55:32.225Z,98338.25
2023-04-02T05:57:56.651Z,98345.00
2023-04-02T06:00:18.976Z,98348.25
2023-04-02T06:02:33.779Z,98356.53
2023-04-02T06:04:44.920Z,98356.53
2023-04-02T06:07:07.026Z,98366.53
2023-04-02T06:09:18.316Z,98367.34
2023-04-02T06:11:33.617Z,98370.63
2023-04-02T06:13:41.597Z,98375.59
2023-04-02T06:15:48.102Z,98383.09
2023-04-02T06:18:11.979Z,98383.03
2023-04-02T06:20:23.699Z,98391.41
2023-04-02T06:22:39.207Z,98396.34
2023-04-02T06:24:48.979Z,98399.59
2023-04-02T06:27:02.659Z,98406.22
2023-04-02T06:29:13.840Z,98406.97
2023-04-02T06:31:30.665Z,98411.91
2023-04-02T06:33:36.602Z,98422.81
2023-04-02T06:35:46.889Z,98428.56
2023-04-02T06:37:58.772Z,98429.38
2023-04-02T06:40:20.872Z,98431.13
2023-04-02T06:42:34.130Z,98441.19
2023-04-02T06:44:46.717Z,98441.06
2023-04-02T06:47:19.708Z,98451.06
2023-04-02T06:49:36.499Z,98449.38
2023-04-02T06:51:46.084Z,98454.63
2023-04-02T06:53:53.867Z,98462.00
2023-04-02T06:56:07.072Z,98467.66
2023-04-02T06:58:18.046Z,98470.22
2023-04-02T07:00:33.220Z,98476.75
2023-04-02T07:02:42.640Z,98485.16
2023-04-02T07:04:49.850Z,98495.97
2023-04-02T07:06:57.096Z,98499.28
2023-04-02T07:09:07.082Z,98502.69
2023-04-02T07:11:20.642Z,98507.75
2023-04-02T07:13:30.688Z,98510.19
2023-04-02T07:15:37.604Z,98519.34
2023-04-02T07:17:43.000Z,98519.41
2023-04-02T07:19:49.826Z,98528.63
2023-04-02T07:21:57.301Z,98530.97
2023-04-02T07:24:06.317Z,98522.69
2023-04-02T07:26:21.158Z,98534.16
2023-04-02T07:28:26.576Z,98538.06
2023-04-02T07:30:34.583Z,98542.84
2023-04-02T07:32:39.622Z,98553.63
2023-04-02T07:34:45.652Z,98557.03
2023-04-02T07:36:50.759Z,98561.19
2023-04-02T07:38:56.612Z,98564.47
2023-04-02T07:41:07.380Z,98573.59
2023-04-02T07:43:12.528Z,98578.34
2023-04-02T07:45:18.405Z,98585.09
2023-04-02T07:47:26.713Z,98581.75
2023-04-02T07:49:32.034Z,98589.84
2023-04-02T07:51:37.949Z,98595.59
2023-04-02T07:53:43.100Z,98602.16
2023-04-02T07:55:48.991Z,98604.56
2023-04-02T07:57:57.483Z,98607.88
2023-04-02T08:00:02.536Z,98618.53
2023-04-02T08:02:26.565Z,98620.75
2023-04-02T08:04:31.745Z,98624.31
2023-04-02T08:06:36.855Z,98632.56
2023-04-02T08:08:42.520Z,98630.97
2023-04-02T08:10:48.570Z,98642.81
2023-04-02T08:12:53.781Z,98648.97
2023-04-02T08:14:59.136Z,98648.28
2023-04-02T08:17:04.581Z,98656.81
2023-04-02T08:19:12.310Z,98658.44
2023-04-02T08:21:17.712Z,98662.00
2023-04-02T08:23:22.847Z,98662.75
2023-04-02T08:25:27.982Z,98667.00
2023-04-02T08:27:33.123Z,98670.41
2023-04-02T08:29:38.455Z,98680.56
2023-04-02T08:31:43.843Z,98684.66
2023-04-02T08:33:49.223Z,98692.22
2023-04-02T08:35:57.104Z,98685.50
2023-04-02T08:38:02.399Z,98692.84
2023-04-02T08:40:10.229Z,98698.63
2023-04-02T08:42:29.585Z,98701.19
2023-04-02T08:44:53.156Z,98712.97
2023-04-02T08:47:04.321Z,98718.84
2023-04-02T08:49:17.217Z,98718.78
2023-04-02T08:51:27.987Z,98722.22
2023-04-02T08:53:38.176Z,98723.13
2023-04-02T08:55:48.526Z,98724.84
2023-04-02T08:58:03.714Z,98737.28
2023-04-02T09:00:23.544Z,98738.84
2023-04-02T09:02:41.057Z,98743.84
2023-04-02T09:04:46.368Z,98745.56
2023-04-02T09:06:58.136Z,98750.63
2023-04-02T09:09:05.139Z,98749.78
2023-04-02T09:11:21.939Z,98760.56
2023-04-02T09:13:30.643Z,98767.25
2023-04-02T09:15:38.829Z,98775.66
2023-04-02T09:17:53.511Z,98774.78
2023-04-02T09:20:05.701Z,98767.22
2023-04-02T09:22:22.522Z,98773.78
2023-04-02T09:24:28.010Z,98775.31
2023-04-02T09:26:35.283Z,98782.63
2023-04-02T09:28:40.827Z,98784.97
2023-04-02T09:31:06.623Z,98787.41
2023-04-02T09:33:13.292Z,98795.81
2023-04-02T09:35:26.103Z,98803.16
2023-04-02T09:37:45.739Z,98808.16
2023-04-02T09:39:51.138Z,98806.50
2023-04-02T09:42:05.522Z,98809.00
2023-04-02T09:44:24.462Z,98812.16
2023-04-02T09:46:30.788Z,98816.44
2023-04-02T09:48:40.076Z,98823.28
2023-04-02T09:50:46.815Z,98836.00
2023-04-02T09:52:56.320Z,98834.19
2023-04-02T09:55:24.441Z,98838.41
2023-04-02T09:57:31.615Z,98846.84
2023-04-02T09:59:38.225Z,98851.75
2023-04-02T10:01:48.273Z,98855.22
2023-04-02T10:03:55.061Z,98855.94
2023-04-02T10:06:12.782Z,98868.50
2023-04-02T10:08:28.316Z,98878.63
2023-04-02T10:10:40.061Z,98871.97
2023-04-02T10:12:47.148Z,98878.50
2023-04-02T10:14:53.903Z,98879.59
2023-04-02T10:17:01.990Z,98887.19
2023-04-02T10:19:20.006Z,98898.19
2023-04-02T10:21:29.364Z,98891.56
2023-04-02T10:23:37.477Z,98899.03
2023-04-02T10:25:51.390Z,98903.97
2023-04-02T10:28:07.313Z,98905.66
2023-04-02T10:30:26.955Z,98909.84
2023-04-02T10:32:40.048Z,98917.25
2023-04-02T10:34:53.188Z,98915.72
2023-04-02T10:37:03.690Z,98919.94
2023-04-02T10:39:19.909Z,98920.75
2023-04-02T10:41:35.742Z,98928.25
2023-04-02T10:44:19.574Z,98927.44
2023-04-02T10:46:37.959Z,98932.34
2023-04-02T10:48:54.547Z,98940.66
2023-04-02T10:51:06.749Z,98940.69
2023-04-02T10:53:18.209Z,98949.06
2023-04-02T10:55:33.176Z,98949.00
2023-04-02T10:57:41.771Z,98952.31
2023-04-02T10:59:53.307Z,98953.03
2023-04-02T11:02:02.078Z,98955.50
2023-04-02T11:04:20.002Z,98960.59
2023-04-02T11:06:29.868Z,98964.69
2023-04-02T11:08:44.592Z,98968.09
2023-04-02T11:11:04.347Z,98966.53
2023-04-02T11:13:18.103Z,98978.16
2023-04-02T11:15:23.828Z,98975.66
2023-04-02T11:17:29.071Z,98984.81
2023-04-02T11:19:36.140Z,98983.25
2023-04-02T11:21:57.369Z,98983.25
2023-04-02T11:24:05.144Z,98992.38
2023-04-02T11:26:41.548Z,98995.72
2023-04-02T11:28:46.861Z,99004.09
2023-04-02T11:30:52.381Z,98997.41
2023-04-02T11:33:23.563Z,99006.53
2023-04-02T11:35:42.425Z,99010.63
2023-04-02T11:37:51.490Z,99019.78
2023-04-02T11:39:59.366Z,99020.72
2023-04-02T11:42:25.106Z,99024.03
2023-04-02T11:44:30.173Z,99027.44
2023-04-02T11:46:48.639Z,99047.38
2023-04-02T11:48:55.236Z,99047.47
2023-04-02T11:51:04.743Z,99044.19
2023-04-02T11:53:24.786Z,99044.16
2023-04-02T11:55:35.589Z,99054.13
2023-04-02T11:58:30.203Z,99067.47
2023-04-02T12:00:56.394Z,99072.44
2023-04-02T12:03:23.042Z,99069.94
2023-04-02T12:05:36.711Z,99076.66
2023-04-02T12:08:05.290Z,99076.59
2023-04-02T12:10:21.021Z,99079.13
2023-04-02T12:12:36.050Z,99084.97
2023-04-02T12:14:51.459Z,99089.16
2023-04-02T12:16:56.810Z,99093.31
2023-04-02T12:19:03.843Z,99096.63
2023-04-02T12:21:09.130Z,99102.47
2023-04-02T12:23:24.962Z,99101.63
2023-04-02T12:25:33.563Z,99107.47
2023-04-02T12:27:39.035Z,99113.31
2023-04-02T12:29:44.194Z,99116.63
2023-04-02T12:31:52.193Z,99119.16
2023-04-02T12:33:57.691Z,99125.78
2023-04-02T12:36:05.015Z,99122.47
2023-04-02T12:38:25.366Z,99123.31
2023-04-02T12:40:31.570Z,99130.78
2023-04-02T12:42:38.525Z,99132.44
2023-04-02T12:44:52.262Z,99141.59
2023-04-02T12:47:01.784Z,99143.25
2023-04-02T12:49:11.164Z,99143.28
2023-04-02T12:51:17.670Z,99144.09
2023-04-02T12:53:27.285Z,99146.59
2023-04-02T12:55:33.674Z,99154.06
2023-04-02T12:57:42.766Z,99155.72
2023-04-02T12:59:49.027Z,99162.38
2023-04-02T13:02:04.270Z,99164.88
2023-04-02T13:04:15.283Z,99178.19
2023-04-02T13:06:27.283Z,99169.00
2023-04-02T13:08:40.076Z,99166.56
2023-04-02T13:10:46.940Z,99180.69
2023-04-02T13:12:57.745Z,99175.72
2023-04-02T13:15:06.024Z,99184.03
2023-04-02T13:17:43.442Z,99170.72
2023-04-02T13:19:49.180Z,99166.56
2023-04-02T13:21:55.449Z,99167.41
2023-04-02T13:24:01.101Z,99164.06
2023-04-02T13:26:18.946Z,99171.56
2023-04-02T13:28:24.730Z,99165.75
2023-04-02T13:30:31.855Z,99174.06
2023-04-02T13:32:37.402Z,99175.72
2023-04-02T13:34:45.056Z,99180.72
2023-04-02T13:36:50.842Z,99176.53
2023-04-02T13:38:56.400Z,99171.56
2023-04-02T13:41:01.471Z,99189.06
2023-04-02T13:43:07.549Z,99182.38
2023-04-02T13:45:24.711Z,99190.69
2023-04-02T13:47:29.783Z,99185.72
2023-04-02T13:49:35.282Z,99193.19
2023-04-02T13:51:47.254Z,99200.69
2023-04-02T13:53:57.072Z,99195.72
2023-04-02T13:56:02.275Z,99201.53
2023-04-02T13:58:08.153Z,99201.53
2023-04-02T14:00:15.781Z,99201.53
2023-04-02T14:02:25.350Z,99210.69
2023-04-02T14:04:35.128Z,99214.03
2023-04-02T14:07:17.212Z,99218.22
2023-04-02T14:09:31.286Z,99219.84
2023-04-02T14:11:50.575Z,99219.03
2023-04-02T14:14:30.327Z,99216.50
2023-04-02T14:17:07.961Z,99222.34
2023-04-02T14:19:36.199Z,99233.19
2023-04-02T14:21:54.446Z,99237.34
2023-04-02T14:24:15.174Z,99242.34
2023-04-02T14:26:29.952Z,99240.69
2023-04-02T14:28:46.525Z,99249.03
2023-04-02T14:31:01.673Z,99246.50
2023-04-02T14:33:17.128Z,99249.00
2023-04-02T14:35:30.437Z,99253.16
2023-04-02T14:37:48.008Z,99246.53
2023-04-02T14:40:06.588Z,99249.88
2023-04-02T14:42:17.005Z,99257.34
2023-04-02T14:44:27.038Z,99258.16
2023-04-02T14:46:38.509Z,99260.69
2023-04-02T14:48:54.513Z,99262.34
2023-04-02T14:51:04.678Z,99259.03
2023-04-02T14:53:24.340Z,99273.16
2023-04-02T14:55:36.050Z,99268.19
2023-04-02T14:57:49.275Z,99275.66
2023-04-02T15:00:03.911Z,99273.19
2023-04-02T15:02:19.657Z,99270.66
2023-04-02T15:04:31.162Z,99274.00
2023-04-02T15:06:40.700Z,99277.34
2023-04-02T15:09:08.407Z,99282.31
2023-04-02T15:11:19.761Z,99284.00
2023-04-02T15:13:31.538Z,99298.16
2023-04-02T15:15:46.196Z,99290.66
2023-04-02T15:17:51.725Z,99290.66
2023-04-02T15:20:11.950Z,99301.47
2023-04-02T15:22:33.351Z,99298.13
2023-04-02T15:24:53.438Z,99296.44
2023-04-02T15:27:21.924Z,99302.25
2023-04-02T15:29:47.013Z,99307.25
2023-04-02T15:31:54.347Z,99305.56
2023-04-02T15:34:20.099Z,99315.56
2023-04-02T15:36:44.460Z,99313.91
2023-04-02T15:38:58.699Z,99316.38
2023-04-02T15:41:13.433Z,99317.25
2023-04-02T15:43:26.079Z,99328.88
2023-04-02T15:45:46.088Z,99330.56
2023-04-02T15:48:18.126Z,99332.22
2023-04-02T15:50:47.630Z,99329.72
2023-04-02T15:53:04.127Z,99339.69
2023-04-02T15:55:25.259Z,99342.19
2023-04-02T15:58:15.960Z,99338.88
2023-04-02T16:00:30.869Z,99347.19
2023-04-02T16:02:58.476Z,99338.84
2023-04-02T16:05:10.342Z,99343.00
2023-04-02T16:07:32.066Z,99342.16
2023-04-02T16:09:51.280Z,99347.13
2023-04-02T16:12:02.711Z,99352.09
2023-04-02T16:14:32.225Z,99365.44
2023-04-02T16:16:38.874Z,99359.63
2023-04-02T16:18:57.761Z,99358.75
2023-04-02T16:21:06.065Z,99360.41
2023-04-02T16:23:18.971Z,99361.22
2023-04-02T16:25:29.729Z,99362.03
2023-04-02T16:27:41.215Z,99362.03
2023-04-02T16:30:11.376Z,99374.50
2023-04-02T16:32:27.620Z,99376.94
2023-04-02T16:34:47.243Z,99381.97
2023-04-02T16:37:03.992Z,99380.34
2023-04-02T16:39:24.305Z,99381.97
2023-04-02T16:41:50.828Z,99388.59
2023-04-02T16:44:08.118Z,99387.66
2023-04-02T16:46:38.153Z,99393.53
2023-04-02T16:48:53.046Z,99393.59
2023-04-02T16:51:11.127Z,99398.53
2023-04-02T16:53:34.013Z,99402.72
2023-04-02T16:55:53.326Z,99407.69
2023-04-02T16:58:14.237Z,99410.13
2023-04-02T17:00:31.055Z,99410.06
2023-04-02T17:02:55.192Z,99416.75
2023-04-02T17:05:12.607Z,99421.69
2023-04-02T17:07:38.064Z,99424.16
2023-04-02T17:09:51.621Z,99422.47
2023-04-02T17:12:03.477Z,99426.66
2023-04-02T17:14:18.502Z,99425.03
2023-04-02T17:16:30.225Z,99425.06
2023-04-02T17:18:38.300Z,99427.53
2023-04-02T17:20:44.054Z,99429.16
2023-04-02T17:22:50.482Z,99433.28
2023-04-02T17:25:00.920Z,99439.88
2023-04-02T17:27:15.514Z,99451.53
2023-04-02T17:29:26.095Z,99462.31
2023-04-02T17:31:37.555Z,99463.13
2023-04-02T17:33:45.417Z,99461.53
2023-04-02T17:36:07.364Z,99463.16
2023-04-02T17:38:22.605Z,99467.25
2023-04-02T17:40:35.559Z,99474.75
2023-04-02T17:42:53.049Z,99478.09
2023-04-02T17:45:14.110Z,99478.13
2023-04-02T17:47:26.038Z,99481.47
2023-04-02T17:49:39.381Z,99472.25
2023-04-02T17:51:54.707Z,99474.75
2023-04-02T17:54:19.797Z,99487.16
2023-04-02T17:56:58.237Z,99486.34
2023-04-02T17:59:24.473Z,99501.28
2023-04-02T18:01:37.590Z,99507.13
2023-04-02T18:03:52.560Z,99505.47
2023-04-02T18:06:06.730Z,99508.00
2023-04-02T18:08:24.323Z,99514.59
2023-04-02T18:10:40.968Z,99513.75
2023-04-02T18:12:59.188Z,99512.88
2023-04-02T18:15:34.476Z,99516.97
2023-04-02T18:17:50.885Z,99524.34
2023-04-02T18:20:05.683Z,99535.97
2023-04-02T18:22:21.219Z,99540.06
2023-04-02T18:24:57.398Z,99540.00
2023-04-02T18:27:19.549Z,99535.75
2023-04-02T18:29:37.360Z,99533.09
2023-04-02T18:31:52.084Z,99543.66
2023-04-02T18:34:34.778Z,99544.34
2023-04-02T18:36:51.160Z,99550.88
2023-04-02T18:39:04.795Z,99557.31
2023-04-02T18:41:45.136Z,99551.34
2023-04-02T18:44:09.151Z,99559.34
2023-04-02T18:46:26.285Z,99567.34
2023-04-02T18:48:43.580Z,99565.34
2023-04-02T18:50:51.074Z,99572.56
2023-04-02T18:52:56.461Z,99571.53
2023-04-02T18:55:16.248Z,99577.88
2023-04-02T18:57:28.360Z,99577.63
2023-04-02T18:59:45.461Z,99580.84
2023-04-02T19:01:54.086Z,99579.00
2023-04-02T19:04:05.573Z,99592.16
2023-04-02T19:06:19.238Z,99593.81
2023-04-02T19:08:31.152Z,99593.75
2023-04-02T19:10:44.584Z,99597.13
2023-04-02T19:12:49.605Z,99601.97
2023-04-02T19:14:56.079Z,99602.09
2023-04-02T19:17:05.321Z,99600.56
2023-04-02T19:19:20.514Z,99592.34
2023-04-02T19:21:37.364Z,99594.03
2023-04-02T19:24:03.205Z,99594.09
2023-04-02T19:26:16.229Z,99598.25
2023-04-02T19:28:31.390Z,99599.31
2023-04-02T19:31:12.341Z,99604.47
2023-04-02T19:33:35.310Z,99607.81
2023-04-02T19:35:48.533Z,99612.03
2023-04-02T19:38:05.742Z,99613.00
2023-04-02T19:40:37.465Z,99618.09
2023-04-02T19:42:51.213Z,99614.09
2023-04-02T19:44:57.618Z,99622.53
2023-04-02T19:47:02.757Z,99614.22
2023-04-02T19:49:14.894Z,99618.41
2023-04-02T19:51:19.958Z,99619.13
2023-04-02T19:53:25.028Z,99618.19
2023-04-02T19:55:30.219Z,99625.53
2023-04-02T19:57:36.543Z,99620.44
2023-04-02T19:59:44.973Z,99623.41
2023-04-02T20:01:50.343Z,99620.03
2023-04-02T20:03:55.599Z,99618.88
2023-04-02T20:06:01.400Z,99620.28
2023-04-02T20:08:06.933Z,99620.19
2023-04-02T20:10:14.111Z,99628.38
2023-04-02T20:12:19.140Z,99626.69
2023-04-02T20:14:24.212Z,99626.75
2023-04-02T20:16:33.049Z,99635.00
2023-04-02T20:18:38.932Z,99630.31
2023-04-02T20:20:44.266Z,99637.00
2023-04-02T20:22:50.351Z,99633.91
2023-04-02T20:24:55.608Z,99637.19
2023-04-02T20:27:00.680Z,99641.47
2023-04-02T20:29:06.121Z,99639.13
2023-04-02T20:31:14.228Z,99644.03
2023-04-02T20:33:25.330Z,99644.75
2023-04-02T20:35:34.595Z,99654.78
2023-04-02T20:37:41.049Z,99648.88
2023-04-02T20:39:46.179Z,99660.44
2023-04-02T20:41:51.928Z,99662.09
2023-04-02T20:43:57.546Z,99661.38
2023-04-02T20:46:05.001Z,99668.00
2023-04-02T20:48:10.511Z,99668.94
2023-04-02T20:50:18.547Z,99666.56
2023-04-02T20:52:24.471Z,99674.78
2023-04-02T20:54:29.491Z,99672.16
2023-04-02T20:56:34.786Z,99679.56
2023-04-02T20:58:41.115Z,99673.72
2023-04-02T21:00:46.885Z,99672.94
2023-04-02T21:02:51.927Z,99668.88
2023-04-02T21:04:56.978Z,99673.97
2023-04-02T21:07:04.920Z,99672.34
2023-04-02T21:09:14.614Z,99674.03
2023-04-02T21:11:22.007Z,99683.09
2023-04-02T21:13:27.036Z,99675.63
2023-04-02T21:15:32.060Z,99679.13
2023-04-02T21:17:37.135Z,99684.09
2023-04-02T21:19:42.621Z,99675.78
2023-04-02T21:21:48.431Z,99683.19
2023-04-02T21:24:01.940Z,99681.34
2023-04-02T21:26:09.111Z,99685.38
2023-04-02T21:28:14.147Z,99681.97
2023-04-02T21:30:19.859Z,99675.25
2023-04-02T21:32:25.633Z,99688.38
2023-04-02T21:34:30.980Z,99686.63
2023-04-02T21:36:37.987Z,99698.84
2023-04-02T21:38:45.386Z,99688.03
2023-04-02T21:40:53.249Z,99691.50
2023-04-02T21:42:58.577Z,99703.03
2023-04-02T21:45:03.928Z,99697.25
2023-04-02T21:47:09.496Z,99703.19
2023-04-02T21:49:16.799Z,99704.88
2023-04-02T21:51:24.757Z,99694.94
2023-04-02T21:53:30.034Z,99699.84
2023-04-02T21:55:35.076Z,99708.09
2023-04-02T21:59:46.894Z,99710.72
2023-04-02T22:01:54.605Z,99713.97
2023-04-02T22:04:01.431Z,99708.22
2023-04-02T22:06:09.025Z,99711.53
2023-04-02T22:08:14.273Z,99713.13
2023-04-02T22:10:19.613Z,99704.88
2023-04-02T22:12:25.225Z,99716.34
2023-04-02T22:14:33.190Z,99713.00
2023-04-02T22:16:39.956Z,99706.41
2023-04-02T22:18:46.276Z,99709.63
2023-04-02T22:20:51.281Z,99713.84
2023-04-02T22:22:56.883Z,99717.09
2023-04-02T22:25:03.165Z,99720.38
2023-04-02T22:27:08.588Z,99719.56
2023-04-02T22:29:13.930Z,99719.72
2023-04-02T22:31:23.679Z,99719.84
2023-04-02T22:33:29.038Z,99721.66
2023-04-02T22:35:34.128Z,99725.91
2023-04-02T22:37:39.455Z,99721.84
2023-04-02T22:39:44.588Z,99717.72
2023-04-02T22:41:49.598Z,99727.75
2023-04-02T22:43:54.986Z,99728.56
2023-04-02T22:46:00.313Z,99730.31
2023-04-02T22:48:08.542Z,99723.59
2023-04-02T22:50:14.143Z,99731.13
2023-04-02T22:52:19.378Z,99728.66
2023-04-02T22:54:24.436Z,99731.97
2023-04-02T22:56:33.019Z,99738.63
2023-04-02T22:58:39.799Z,99745.34
2023-04-02T23:00:45.136Z,99744.59
2023-04-02T23:02:50.336Z,99736.44
2023-04-02T23:04:57.970Z,99742.31
2023-04-02T23:07:03.342Z,99739.09
2023-04-02T23:09:08.831Z,99745.72
2023-04-02T23:11:16.891Z,99745.81
2023-04-02T23:13:22.351Z,99749.09
2023-04-02T23:15:27.410Z,99744.31
2023-04-02T23:17:32.682Z,99746.09
2023-04-02T23:19:38.006Z,99742.72
2023-04-02T23:21:45.985Z,99746.00
2023-04-02T23:23:52.612Z,99753.47
2023-04-02T23:26:07.582Z,99748.41
2023-04-02T23:28:15.393Z,99756.69
2023-04-02T23:30:20.948Z,99750.84
2023-04-02T23:32:26.856Z,99747.69
2023-04-02T23:34:31.968Z,99754.44
2023-04-02T23:36:38.501Z,99748.72
2023-04-02T23:38:46.475Z,99757.91
2023-04-02T23:40:51.946Z,99751.34
2023-04-02T23:42:56.991Z,99749.78
2023-04-02T23:45:02.043Z,99751.50
2023-04-02T23:47:07.273Z,99756.66
2023-04-02T23:49:14.435Z,99743.72
2023-04-02T23:51:20.021Z,99750.41
2023-04-02T23:53:25.073Z,99745.63
2023-04-02T23:55:32.672Z,99755.88
2023-04-02T23:57:37.741Z,99754.19
2023-04-02T23:59:43.109Z,99753.50
